sensor_id;sensor_type;location;lat;lon;timestamp;pressure;altitude;pressure_sealevel;temperature;humidity
84511;BME280;74730;43.858;18.424;2024-03-06T00:02:11;95206.13;;;7.45;67.33
84511;BME280;74730;43.858;18.424;2024-03-06T00:04:37;95198.94;;;7.41;66.99
84511;BME280;74730;43.858;18.424;2024-03-06T00:07:03;95208.78;;;7.37;67.86
84511;BME280;74730;43.858;18.424;2024-03-06T00:09:28;95202.38;;;7.33;67.61
84511;BME280;74730;43.858;18.424;2024-03-06T00:11:55;95201.41;;;7.34;68.04
84511;BME280;74730;43.858;18.424;2024-03-06T00:14:21;95203.53;;;7.31;67.66
84511;BME280;74730;43.858;18.424;2024-03-06T00:16:50;95202.91;;;7.29;67.63
84511;BME280;74730;43.858;18.424;2024-03-06T00:19:18;95210.63;;;7.29;68.30
84511;BME280;74730;43.858;18.424;2024-03-06T00:21:44;95207.59;;;7.25;68.22
84511;BME280;74730;43.858;18.424;2024-03-06T00:24:13;95204.25;;;7.25;67.86
84511;BME280;74730;43.858;18.424;2024-03-06T00:26:43;95208.13;;;7.21;67.73
84511;BME280;74730;43.858;18.424;2024-03-06T00:29:09;95212.66;;;7.19;68.06
84511;BME280;74730;43.858;18.424;2024-03-06T00:31:35;95214.59;;;7.17;67.72
84511;BME280;74730;43.858;18.424;2024-03-06T00:34:00;95219.75;;;7.17;68.23
84511;BME280;74730;43.858;18.424;2024-03-06T00:36:26;95221.88;;;7.13;68.84
84511;BME280;74730;43.858;18.424;2024-03-06T00:38:51;95221.22;;;7.11;68.05
84511;BME280;74730;43.858;18.424;2024-03-06T00:41:17;95219.66;;;7.10;67.74
84511;BME280;74730;43.858;18.424;2024-03-06T00:43:43;95219.53;;;7.03;68.26
84511;BME280;74730;43.858;18.424;2024-03-06T00:46:08;95217.94;;;7.02;68.87
84511;BME280;74730;43.858;18.424;2024-03-06T00:48:34;95223.44;;;6.99;68.34
84511;BME280;74730;43.858;18.424;2024-03-06T00:50:59;95217.84;;;6.96;69.22
84511;BME280;74730;43.858;18.424;2024-03-06T00:53:25;95225.72;;;6.94;69.04
84511;BME280;74730;43.858;18.424;2024-03-06T00:55:50;95222.06;;;6.89;68.92
84511;BME280;74730;43.858;18.424;2024-03-06T00:58:16;95228.25;;;6.80;68.56
84511;BME280;74730;43.858;18.424;2024-03-06T01:00:41;95225.22;;;6.76;68.75
84511;BME280;74730;43.858;18.424;2024-03-06T01:03:07;95228.97;;;6.74;69.10
84511;BME280;74730;43.858;18.424;2024-03-06T01:05:32;95232.81;;;6.69;69.50
84511;BME280;74730;43.858;18.424;2024-03-06T01:07:58;95225.03;;;6.63;69.34
84511;BME280;74730;43.858;18.424;2024-03-06T01:10:24;95224.72;;;6.58;69.21
84511;BME280;74730;43.858;18.424;2024-03-06T01:12:50;95232.44;;;6.58;69.36
84511;BME280;74730;43.858;18.424;2024-03-06T01:15:16;95235.34;;;6.55;70.19
84511;BME280;74730;43.858;18.424;2024-03-06T01:17:41;95227.97;;;6.52;70.60
84511;BME280;74730;43.858;18.424;2024-03-06T01:20:07;95228.47;;;6.47;69.97
84511;BME280;74730;43.858;18.424;2024-03-06T01:22:34;95235.09;;;6.42;70.55
84511;BME280;74730;43.858;18.424;2024-03-06T01:25:00;95235.28;;;6.40;70.69
84511;BME280;74730;43.858;18.424;2024-03-06T01:27:26;95229.69;;;6.37;70.68
84511;BME280;74730;43.858;18.424;2024-03-06T01:29:52;95235.34;;;6.32;70.25
84511;BME280;74730;43.858;18.424;2024-03-06T01:32:17;95228.94;;;6.28;70.24
84511;BME280;74730;43.858;18.424;2024-03-06T01:34:43;95232.34;;;6.20;70.51
84511;BME280;74730;43.858;18.424;2024-03-06T01:37:08;95240.38;;;6.17;70.44
84511;BME280;74730;43.858;18.424;2024-03-06T01:39:34;95229.47;;;6.15;70.98
84511;BME280;74730;43.858;18.424;2024-03-06T01:42:01;95231.75;;;6.10;71.20
84511;BME280;74730;43.858;18.424;2024-03-06T01:44:27;95231.75;;;6.10;71.22
84511;BME280;74730;43.858;18.424;2024-03-06T01:46:52;95222.31;;;6.11;70.70
84511;BME280;74730;43.858;18.424;2024-03-06T01:49:18;95230.63;;;6.13;71.31
84511;BME280;74730;43.858;18.424;2024-03-06T01:51:48;95225.06;;;6.09;71.23
84511;BME280;74730;43.858;18.424;2024-03-06T01:54:15;95231.66;;;6.04;70.57
84511;BME280;74730;43.858;18.424;2024-03-06T01:56:45;95227.97;;;5.98;71.41
84511;BME280;74730;43.858;18.424;2024-03-06T01:59:15;95234.25;;;5.96;71.19
84511;BME280;74730;43.858;18.424;2024-03-06T02:01:42;95233.75;;;5.92;71.36
84511;BME280;74730;43.858;18.424;2024-03-06T02:04:08;95230.91;;;5.87;71.85
84511;BME280;74730;43.858;18.424;2024-03-06T02:06:38;95232.19;;;5.83;71.87
84511;BME280;74730;43.858;18.424;2024-03-06T02:09:04;95231.88;;;5.78;72.45
84511;BME280;74730;43.858;18.424;2024-03-06T02:11:29;95239.25;;;5.73;72.36
84511;BME280;74730;43.858;18.424;2024-03-06T02:13:55;95236.22;;;5.69;72.51
84511;BME280;74730;43.858;18.424;2024-03-06T02:16:21;95240.56;;;5.69;72.27
84511;BME280;74730;43.858;18.424;2024-03-06T02:18:53;95243.91;;;5.69;72.40
84511;BME280;74730;43.858;18.424;2024-03-06T02:21:22;95240.75;;;5.67;72.55
84511;BME280;74730;43.858;18.424;2024-03-06T02:23:49;95243.47;;;5.66;72.19
84511;BME280;74730;43.858;18.424;2024-03-06T02:26:20;95243.97;;;5.61;72.82
84511;BME280;74730;43.858;18.424;2024-03-06T02:28:55;95242.34;;;5.60;72.86
84511;BME280;74730;43.858;18.424;2024-03-06T02:31:21;95243.03;;;5.54;73.08
84511;BME280;74730;43.858;18.424;2024-03-06T02:33:49;95250.22;;;5.51;73.19
84511;BME280;74730;43.858;18.424;2024-03-06T02:36:18;95250.09;;;5.44;72.55
84511;BME280;74730;43.858;18.424;2024-03-06T02:38:44;95247.38;;;5.38;73.31
84511;BME280;74730;43.858;18.424;2024-03-06T02:41:10;95247.56;;;5.36;73.20
84511;BME280;74730;43.858;18.424;2024-03-06T02:43:36;95246.13;;;5.33;73.03
84511;BME280;74730;43.858;18.424;2024-03-06T02:46:02;95236.22;;;5.30;73.75
84511;BME280;74730;43.858;18.424;2024-03-06T02:48:28;95251.88;;;5.27;73.33
84511;BME280;74730;43.858;18.424;2024-03-06T02:50:54;95241.97;;;5.24;73.43
84511;BME280;74730;43.858;18.424;2024-03-06T02:53:19;95242.94;;;5.23;73.63
84511;BME280;74730;43.858;18.424;2024-03-06T02:55:45;95249.03;;;5.22;73.28
84511;BME280;74730;43.858;18.424;2024-03-06T02:58:10;95249.19;;;5.21;73.35
84511;BME280;74730;43.858;18.424;2024-03-06T03:00:36;95252.69;;;5.20;73.53
84511;BME280;74730;43.858;18.424;2024-03-06T03:03:01;95254.78;;;5.16;73.43
84511;BME280;74730;43.858;18.424;2024-03-06T03:05:27;95253.84;;;5.17;73.80
84511;BME280;74730;43.858;18.424;2024-03-06T03:07:52;95251.28;;;5.17;73.45
84511;BME280;74730;43.858;18.424;2024-03-06T03:10:18;95242.78;;;5.17;73.63
84511;BME280;74730;43.858;18.424;2024-03-06T03:12:43;95250.97;;;5.12;73.95
84511;BME280;74730;43.858;18.424;2024-03-06T03:15:09;95259.25;;;5.14;73.78
84511;BME280;74730;43.858;18.424;2024-03-06T03:17:35;95259.91;;;5.16;73.60
84511;BME280;74730;43.858;18.424;2024-03-06T03:20:02;95256.09;;;5.12;73.20
84511;BME280;74730;43.858;18.424;2024-03-06T03:22:44;95260.69;;;5.09;73.57
84511;BME280;74730;43.858;18.424;2024-03-06T03:25:11;95254.50;;;5.03;73.79
84511;BME280;74730;43.858;18.424;2024-03-06T03:27:38;95254.78;;;5.00;74.09
84511;BME280;74730;43.858;18.424;2024-03-06T03:30:07;95248.88;;;5.00;73.96
84511;BME280;74730;43.858;18.424;2024-03-06T03:32:34;95249.84;;;4.99;74.08
84511;BME280;74730;43.858;18.424;2024-03-06T03:34:59;95245.69;;;4.98;74.29
84511;BME280;74730;43.858;18.424;2024-03-06T03:37:25;95246.66;;;4.97;73.86
84511;BME280;74730;43.858;18.424;2024-03-06T03:39:50;95245.53;;;4.91;73.35
84511;BME280;74730;43.858;18.424;2024-03-06T03:42:15;95246.50;;;4.90;74.50
84511;BME280;74730;43.858;18.424;2024-03-06T03:44:41;95250.31;;;4.86;74.39
84511;BME280;74730;43.858;18.424;2024-03-06T03:47:07;95256.56;;;4.83;74.61
84511;BME280;74730;43.858;18.424;2024-03-06T03:49:32;95255.78;;;4.83;74.51
84511;BME280;74730;43.858;18.424;2024-03-06T03:51:58;95254.97;;;4.82;74.04
84511;BME280;74730;43.858;18.424;2024-03-06T03:54:23;95253.88;;;4.85;74.11
84511;BME280;74730;43.858;18.424;2024-03-06T03:56:50;95257.38;;;4.84;74.18
84511;BME280;74730;43.858;18.424;2024-03-06T03:59:15;95259.28;;;4.82;74.28
84511;BME280;74730;43.858;18.424;2024-03-06T04:01:41;95258.81;;;4.78;74.51
84511;BME280;74730;43.858;18.424;2024-03-06T04:04:06;95256.56;;;4.75;74.52
84511;BME280;74730;43.858;18.424;2024-03-06T04:06:33;95257.84;;;4.71;74.66
84511;BME280;74730;43.858;18.424;2024-03-06T04:09:25;95260.41;;;4.71;74.45
84511;BME280;74730;43.858;18.424;2024-03-06T04:11:50;95260.25;;;4.73;74.53
84511;BME280;74730;43.858;18.424;2024-03-06T04:14:16;95258.00;;;4.70;74.44
84511;BME280;74730;43.858;18.424;2024-03-06T04:16:41;95258.97;;;4.69;74.53
84511;BME280;74730;43.858;18.424;2024-03-06T04:19:07;95260.91;;;4.67;74.84
84511;BME280;74730;43.858;18.424;2024-03-06T04:21:32;95271.13;;;4.67;74.94
84511;BME280;74730;43.858;18.424;2024-03-06T04:23:58;95271.28;;;4.65;74.92
84511;BME280;74730;43.858;18.424;2024-03-06T04:26:23;95268.06;;;4.63;75.39
84511;BME280;74730;43.858;18.424;2024-03-06T04:28:49;95272.41;;;4.63;75.16
84511;BME280;74730;43.858;18.424;2024-03-06T04:31:14;95276.06;;;4.60;74.85
84511;BME280;74730;43.858;18.424;2024-03-06T04:33:41;95273.03;;;4.57;74.91
84511;BME280;74730;43.858;18.424;2024-03-06T04:36:07;95274.47;;;4.59;75.40
84511;BME280;74730;43.858;18.424;2024-03-06T04:38:34;95277.19;;;4.58;74.78
84511;BME280;74730;43.858;18.424;2024-03-06T04:40:59;95279.91;;;4.56;75.24
84511;BME280;74730;43.858;18.424;2024-03-06T04:43:25;95279.09;;;4.56;75.16
84511;BME280;74730;43.858;18.424;2024-03-06T04:45:50;95276.41;;;4.57;75.06
84511;BME280;74730;43.858;18.424;2024-03-06T04:48:16;95280.38;;;4.60;75.10
84511;BME280;74730;43.858;18.424;2024-03-06T04:50:42;95282.78;;;4.61;74.94
84511;BME280;74730;43.858;18.424;2024-03-06T04:53:07;95277.81;;;4.60;75.51
84511;BME280;74730;43.858;18.424;2024-03-06T04:55:33;95289.97;;;4.58;75.20
84511;BME280;74730;43.858;18.424;2024-03-06T04:58:02;95278.28;;;4.55;74.56
84511;BME280;74730;43.858;18.424;2024-03-06T05:00:28;95277.66;;;4.53;74.47
84511;BME280;74730;43.858;18.424;2024-03-06T05:02:54;95285.97;;;4.47;74.37
84511;BME280;74730;43.858;18.424;2024-03-06T05:05:21;95283.56;;;4.45;74.44
84511;BME280;74730;43.858;18.424;2024-03-06T05:07:48;95284.53;;;4.44;74.86
84511;BME280;74730;43.858;18.424;2024-03-06T05:10:14;95287.72;;;4.38;75.18
84511;BME280;74730;43.858;18.424;2024-03-06T05:12:41;95294.09;;;4.34;75.04
84511;BME280;74730;43.858;18.424;2024-03-06T05:15:06;95290.56;;;4.35;74.92
84511;BME280;74730;43.858;18.424;2024-03-06T05:17:33;95286.09;;;4.37;74.84
84511;BME280;74730;43.858;18.424;2024-03-06T05:19:59;95288.00;;;4.35;74.61
84511;BME280;74730;43.858;18.424;2024-03-06T05:22:24;95294.44;;;4.39;74.28
84511;BME280;74730;43.858;18.424;2024-03-06T05:24:51;95289.78;;;4.43;74.18
84511;BME280;74730;43.858;18.424;2024-03-06T05:27:18;95294.59;;;4.46;74.12
84511;BME280;74730;43.858;18.424;2024-03-06T05:29:44;95286.44;;;4.51;74.17
84511;BME280;74730;43.858;18.424;2024-03-06T05:32:10;95289.81;;;4.59;73.68
84511;BME280;74730;43.858;18.424;2024-03-06T05:34:35;95301.03;;;4.66;73.56
84511;BME280;74730;43.858;18.424;2024-03-06T05:37:01;95304.38;;;4.75;73.44
84511;BME280;74730;43.858;18.424;2024-03-06T05:39:29;95299.91;;;4.77;73.05
84511;BME280;74730;43.858;18.424;2024-03-06T05:41:55;95305.34;;;4.82;72.66
84511;BME280;74730;43.858;18.424;2024-03-06T05:44:21;95298.47;;;4.90;72.74
84511;BME280;74730;43.858;18.424;2024-03-06T05:46:47;95300.25;;;4.98;72.87
84511;BME280;74730;43.858;18.424;2024-03-06T05:49:13;95310.63;;;5.05;71.59
84511;BME280;74730;43.858;18.424;2024-03-06T05:51:39;95297.97;;;5.19;71.58
84511;BME280;74730;43.858;18.424;2024-03-06T05:54:04;95299.28;;;5.31;71.33
84511;BME280;74730;43.858;18.424;2024-03-06T05:56:34;95305.50;;;5.45;71.41
84511;BME280;74730;43.858;18.424;2024-03-06T05:58:59;95292.13;;;5.74;70.23
84511;BME280;74730;43.858;18.424;2024-03-06T06:01:30;95295.78;;;5.96;69.49
84511;BME280;74730;43.858;18.424;2024-03-06T06:03:56;95299.16;;;6.27;68.50
84511;BME280;74730;43.858;18.424;2024-03-06T06:06:21;95303.13;;;6.60;67.53
84511;BME280;74730;43.858;18.424;2024-03-06T06:08:48;95302.41;;;6.75;66.92
84511;BME280;74730;43.858;18.424;2024-03-06T06:11:13;95300.41;;;6.85;67.18
84511;BME280;74730;43.858;18.424;2024-03-06T06:13:39;95300.41;;;7.07;65.63
84511;BME280;74730;43.858;18.424;2024-03-06T06:16:07;95305.06;;;7.27;65.17
84511;BME280;74730;43.858;18.424;2024-03-06T06:18:33;95298.78;;;7.44;64.70
84511;BME280;74730;43.858;18.424;2024-03-06T06:20:59;95305.47;;;7.68;63.33
84511;BME280;74730;43.858;18.424;2024-03-06T06:23:24;95301.59;;;7.86;63.07
84511;BME280;74730;43.858;18.424;2024-03-06T06:25:51;95305.81;;;8.09;63.01
84511;BME280;74730;43.858;18.424;2024-03-06T06:28:16;95304.94;;;8.31;61.93
84511;BME280;74730;43.858;18.424;2024-03-06T06:30:42;95307.13;;;8.49;61.10
84511;BME280;74730;43.858;18.424;2024-03-06T06:33:07;95302.38;;;8.67;60.12
84511;BME280;74730;43.858;18.424;2024-03-06T06:35:34;95293.00;;;8.80;59.17
84511;BME280;74730;43.858;18.424;2024-03-06T06:38:03;95306.63;;;8.96;59.06
84511;BME280;74730;43.858;18.424;2024-03-06T06:40:30;95313.09;;;9.13;58.83
84511;BME280;74730;43.858;18.424;2024-03-06T06:42:56;95305.72;;;9.31;58.42
84511;BME280;74730;43.858;18.424;2024-03-06T06:45:22;95307.53;;;9.58;57.36
84511;BME280;74730;43.858;18.424;2024-03-06T06:47:48;95309.06;;;9.81;56.32
84511;BME280;74730;43.858;18.424;2024-03-06T06:50:15;95302.81;;;9.96;56.88
84511;BME280;74730;43.858;18.424;2024-03-06T06:52:41;95313.06;;;10.17;55.65
84511;BME280;74730;43.858;18.424;2024-03-06T06:55:07;95306.22;;;10.38;55.21
84511;BME280;74730;43.858;18.424;2024-03-06T06:57:37;95310.22;;;10.47;54.93
84511;BME280;74730;43.858;18.424;2024-03-06T07:00:04;95302.88;;;10.44;54.94
84511;BME280;74730;43.858;18.424;2024-03-06T07:02:39;95305.22;;;10.45;54.85
84511;BME280;74730;43.858;18.424;2024-03-06T07:05:08;95312.72;;;10.27;55.03
84511;BME280;74730;43.858;18.424;2024-03-06T07:07:34;95315.50;;;10.26;54.64
84511;BME280;74730;43.858;18.424;2024-03-06T07:10:01;95311.31;;;10.31;54.80
84511;BME280;74730;43.858;18.424;2024-03-06T07:12:28;95315.28;;;10.20;54.87
84511;BME280;74730;43.858;18.424;2024-03-06T07:14:53;95312.22;;;10.10;55.48
84511;BME280;74730;43.858;18.424;2024-03-06T07:17:19;95318.50;;;10.01;55.60
84511;BME280;74730;43.858;18.424;2024-03-06T07:19:44;95321.81;;;9.89;56.08
84511;BME280;74730;43.858;18.424;2024-03-06T07:22:10;95326.81;;;9.97;56.14
84511;BME280;74730;43.858;18.424;2024-03-06T07:24:36;95323.44;;;10.24;55.47
84511;BME280;74730;43.858;18.424;2024-03-06T07:27:02;95321.00;;;10.16;55.51
84511;BME280;74730;43.858;18.424;2024-03-06T07:29:28;95313.53;;;10.34;54.93
84511;BME280;74730;43.858;18.424;2024-03-06T07:31:54;95310.28;;;10.73;53.43
84511;BME280;74730;43.858;18.424;2024-03-06T07:34:20;95310.53;;;11.04;53.10
84511;BME280;74730;43.858;18.424;2024-03-06T07:36:49;95309.59;;;11.38;52.24
84511;BME280;74730;43.858;18.424;2024-03-06T07:39:19;95309.56;;;11.97;51.11
84511;BME280;74730;43.858;18.424;2024-03-06T07:41:44;95308.00;;;12.92;48.25
84511;BME280;74730;43.858;18.424;2024-03-06T07:44:10;95304.59;;;13.54;46.71
84511;BME280;74730;43.858;18.424;2024-03-06T07:46:36;95304.69;;;14.45;44.87
84511;BME280;74730;43.858;18.424;2024-03-06T07:49:02;95300.38;;;15.29;43.00
84511;BME280;74730;43.858;18.424;2024-03-06T07:51:29;95296.84;;;15.12;42.54
84511;BME280;74730;43.858;18.424;2024-03-06T07:53:55;95304.16;;;14.73;43.44
84511;BME280;74730;43.858;18.424;2024-03-06T07:56:22;95302.56;;;14.72;43.86
84511;BME280;74730;43.858;18.424;2024-03-06T07:58:48;95299.31;;;15.18;41.94
84511;BME280;74730;43.858;18.424;2024-03-06T08:01:15;95296.06;;;15.76;41.23
84511;BME280;74730;43.858;18.424;2024-03-06T08:03:41;95302.69;;;16.18;40.11
84511;BME280;74730;43.858;18.424;2024-03-06T08:06:08;95295.88;;;16.80;38.93
84511;BME280;74730;43.858;18.424;2024-03-06T08:08:35;95293.09;;;16.99;38.08
84511;BME280;74730;43.858;18.424;2024-03-06T08:11:01;95293.75;;;17.39;37.32
84511;BME280;74730;43.858;18.424;2024-03-06T08:13:27;95298.69;;;17.86;37.31
84511;BME280;74730;43.858;18.424;2024-03-06T08:15:53;95299.94;;;18.00;36.35
84511;BME280;74730;43.858;18.424;2024-03-06T08:18:18;95293.09;;;18.15;36.15
84511;BME280;74730;43.858;18.424;2024-03-06T08:20:44;95297.06;;;18.18;36.08
84511;BME280;74730;43.858;18.424;2024-03-06T08:23:10;95290.38;;;18.27;36.03
84511;BME280;74730;43.858;18.424;2024-03-06T08:25:35;95290.44;;;18.32;35.97
84511;BME280;74730;43.858;18.424;2024-03-06T08:28:01;95301.84;;;18.04;36.62
84511;BME280;74730;43.858;18.424;2024-03-06T08:30:29;95297.34;;;17.50;37.42
84511;BME280;74730;43.858;18.424;2024-03-06T08:32:57;95292.16;;;17.05;38.60
84511;BME280;74730;43.858;18.424;2024-03-06T08:35:23;95288.00;;;16.52;39.38
84511;BME280;74730;43.858;18.424;2024-03-06T08:37:50;95286.00;;;16.42;39.74
84511;BME280;74730;43.858;18.424;2024-03-06T08:40:17;95282.19;;;16.73;39.33
84511;BME280;74730;43.858;18.424;2024-03-06T08:42:43;95289.19;;;16.84;39.23
84511;BME280;74730;43.858;18.424;2024-03-06T08:45:09;95277.84;;;16.79;39.45
84511;BME280;74730;43.858;18.424;2024-03-06T08:47:35;95278.41;;;16.81;39.41
84511;BME280;74730;43.858;18.424;2024-03-06T08:50:01;95277.31;;;17.22;38.51
84511;BME280;74730;43.858;18.424;2024-03-06T08:52:28;95276.75;;;17.20;38.68
84511;BME280;74730;43.858;18.424;2024-03-06T08:54:54;95274.78;;;17.27;38.73
84511;BME280;74730;43.858;18.424;2024-03-06T08:57:19;95266.38;;;17.25;39.28
84511;BME280;74730;43.858;18.424;2024-03-06T08:59:47;95271.78;;;17.35;38.60
84511;BME280;74730;43.858;18.424;2024-03-06T09:02:15;95260.84;;;17.05;39.09
84511;BME280;74730;43.858;18.424;2024-03-06T09:04:44;95268.09;;;16.86;39.62
84511;BME280;74730;43.858;18.424;2024-03-06T09:07:10;95271.13;;;16.83;39.86
84511;BME280;74730;43.858;18.424;2024-03-06T09:09:36;95266.19;;;16.81;39.89
84511;BME280;74730;43.858;18.424;2024-03-06T09:12:06;95267.47;;;16.67;40.01
84511;BME280;74730;43.858;18.424;2024-03-06T09:14:36;95265.00;;;16.61;40.33
84511;BME280;74730;43.858;18.424;2024-03-06T09:17:02;95264.00;;;17.07;39.30
84511;BME280;74730;43.858;18.424;2024-03-06T09:19:28;95255.94;;;17.42;38.55
84511;BME280;74730;43.858;18.424;2024-03-06T09:21:54;95259.13;;;17.77;38.54
84511;BME280;74730;43.858;18.424;2024-03-06T09:24:23;95252.13;;;17.99;37.48
84511;BME280;74730;43.858;18.424;2024-03-06T09:26:51;95254.78;;;18.04;37.61
84511;BME280;74730;43.858;18.424;2024-03-06T09:29:17;95248.97;;;17.81;38.17
84511;BME280;74730;43.858;18.424;2024-03-06T09:31:43;95245.28;;;17.98;37.87
84511;BME280;74730;43.858;18.424;2024-03-06T09:34:09;95244.53;;;18.41;37.21
84511;BME280;74730;43.858;18.424;2024-03-06T09:36:41;95243.47;;;18.86;36.84
84511;BME280;74730;43.858;18.424;2024-03-06T09:39:14;95234.59;;;19.19;36.26
84511;BME280;74730;43.858;18.424;2024-03-06T09:41:45;95236.25;;;19.30;35.87
84511;BME280;74730;43.858;18.424;2024-03-06T09:44:12;95227.88;;;19.28;35.99
84511;BME280;74730;43.858;18.424;2024-03-06T09:46:44;95226.72;;;19.45;35.49
84511;BME280;74730;43.858;18.424;2024-03-06T09:49:11;95226.16;;;19.43;35.62
84511;BME280;74730;43.858;18.424;2024-03-06T09:51:38;95223.34;;;19.50;35.35
84511;BME280;74730;43.858;18.424;2024-03-06T09:54:07;95209.56;;;19.65;35.43
84511;BME280;74730;43.858;18.424;2024-03-06T09:56:33;95216.31;;;19.56;35.75
84511;BME280;74730;43.858;18.424;2024-03-06T09:59:00;95218.19;;;19.28;35.88
84511;BME280;74730;43.858;18.424;2024-03-06T10:01:25;95213.75;;;19.02;36.57
84511;BME280;74730;43.858;18.424;2024-03-06T10:03:53;95217.94;;;18.71;37.00
84511;BME280;74730;43.858;18.424;2024-03-06T10:06:19;95209.84;;;18.73;37.31
84511;BME280;74730;43.858;18.424;2024-03-06T10:08:45;95206.66;;;18.71;36.73
84511;BME280;74730;43.858;18.424;2024-03-06T10:11:12;95204.31;;;18.69;36.83
84511;BME280;74730;43.858;18.424;2024-03-06T10:13:37;95206.09;;;18.64;37.34
84511;BME280;74730;43.858;18.424;2024-03-06T10:16:04;95198.78;;;18.66;37.38
84511;BME280;74730;43.858;18.424;2024-03-06T10:18:34;95190.56;;;18.79;37.36
84511;BME280;74730;43.858;18.424;2024-03-06T10:20:59;95186.91;;;18.85;37.14
84511;BME280;74730;43.858;18.424;2024-03-06T10:23:26;95184.63;;;18.93;36.92
84511;BME280;74730;43.858;18.424;2024-03-06T10:25:55;95181.75;;;18.90;36.43
84511;BME280;74730;43.858;18.424;2024-03-06T10:28:21;95178.03;;;18.86;36.45
84511;BME280;74730;43.858;18.424;2024-03-06T10:30:49;95171.09;;;18.48;37.34
84511;BME280;74730;43.858;18.424;2024-03-06T10:33:16;95169.69;;;18.35;37.48
84511;BME280;74730;43.858;18.424;2024-03-06T10:35:46;95164.38;;;18.30;37.67
84511;BME280;74730;43.858;18.424;2024-03-06T10:38:13;95160.63;;;18.21;37.95
84511;BME280;74730;43.858;18.424;2024-03-06T10:40:43;95154.81;;;18.14;37.94
84511;BME280;74730;43.858;18.424;2024-03-06T10:43:10;95150.38;;;18.14;38.37
84511;BME280;74730;43.858;18.424;2024-03-06T10:45:50;95156.50;;;18.25;38.22
84511;BME280;74730;43.858;18.424;2024-03-06T10:48:17;95146.22;;;17.97;38.07
84511;BME280;74730;43.858;18.424;2024-03-06T10:50:44;95138.84;;;17.89;38.13
84511;BME280;74730;43.858;18.424;2024-03-06T10:53:15;95138.53;;;18.07;38.19
84511;BME280;74730;43.858;18.424;2024-03-06T10:55:43;95129.25;;;18.21;37.90
84511;BME280;74730;43.858;18.424;2024-03-06T10:58:12;95117.84;;;18.27;37.41
84511;BME280;74730;43.858;18.424;2024-03-06T11:00:40;95116.00;;;18.28;35.44
84511;BME280;74730;43.858;18.424;2024-03-06T11:03:07;95106.53;;;18.22;36.13
84511;BME280;74730;43.858;18.424;2024-03-06T11:05:37;95105.22;;;18.19;34.64
84511;BME280;74730;43.858;18.424;2024-03-06T11:08:10;95102.81;;;17.69;35.66
84511;BME280;74730;43.858;18.424;2024-03-06T11:10:39;95103.66;;;17.75;35.77
84511;BME280;74730;43.858;18.424;2024-03-06T11:15:53;95095.56;;;17.98;35.68
84511;BME280;74730;43.858;18.424;2024-03-06T11:23:28;95071.53;;;18.23;35.32
84511;BME280;74730;43.858;18.424;2024-03-06T11:25:55;95068.16;;;18.27;34.62
84511;BME280;74730;43.858;18.424;2024-03-06T11:28:22;95064.38;;;18.13;35.25
84511;BME280;74730;43.858;18.424;2024-03-06T11:31:09;95057.94;;;17.99;35.13
84511;BME280;74730;43.858;18.424;2024-03-06T11:33:43;95052.44;;;17.95;35.71
84511;BME280;74730;43.858;18.424;2024-03-06T11:36:28;95052.78;;;18.04;36.03
84511;BME280;74730;43.858;18.424;2024-03-06T11:39:04;95044.72;;;18.10;34.78
84511;BME280;74730;43.858;18.424;2024-03-06T11:41:46;95039.03;;;18.13;35.24
84511;BME280;74730;43.858;18.424;2024-03-06T11:44:20;95035.38;;;18.14;35.78
84511;BME280;74730;43.858;18.424;2024-03-06T11:46:57;95028.66;;;18.24;35.31
84511;BME280;74730;43.858;18.424;2024-03-06T11:49:24;95024.94;;;18.20;35.84
84511;BME280;74730;43.858;18.424;2024-03-06T11:51:55;95026.38;;;18.32;35.17
84511;BME280;74730;43.858;18.424;2024-03-06T11:54:22;95016.81;;;18.48;35.64
84511;BME280;74730;43.858;18.424;2024-03-06T11:56:56;95013.28;;;18.59;34.76
84511;BME280;74730;43.858;18.424;2024-03-06T11:59:29;95010.97;;;18.68;34.28
84511;BME280;74730;43.858;18.424;2024-03-06T12:01:57;94997.94;;;18.73;33.66
84511;BME280;74730;43.858;18.424;2024-03-06T12:04:23;95001.50;;;18.62;33.62
84511;BME280;74730;43.858;18.424;2024-03-06T12:06:49;94992.41;;;18.64;34.17
84511;BME280;74730;43.858;18.424;2024-03-06T12:09:15;94992.72;;;18.41;33.92
84511;BME280;74730;43.858;18.424;2024-03-06T12:11:41;94982.84;;;18.16;33.14
84511;BME280;74730;43.858;18.424;2024-03-06T12:14:14;94985.63;;;18.36;34.00
84511;BME280;74730;43.858;18.424;2024-03-06T12:16:40;94977.91;;;18.51;34.28
84511;BME280;74730;43.858;18.424;2024-03-06T12:19:05;94982.00;;;18.79;33.74
84511;BME280;74730;43.858;18.424;2024-03-06T12:21:31;94980.84;;;19.07;33.66
84511;BME280;74730;43.858;18.424;2024-03-06T12:24:09;94976.25;;;19.29;33.40
84511;BME280;74730;43.858;18.424;2024-03-06T12:26:36;94980.00;;;19.48;33.15
84511;BME280;74730;43.858;18.424;2024-03-06T12:29:06;94975.56;;;19.54;32.59
84511;BME280;74730;43.858;18.424;2024-03-06T12:31:34;94971.31;;;19.43;33.29
84511;BME280;74730;43.858;18.424;2024-03-06T12:34:00;94965.34;;;19.48;32.96
84511;BME280;74730;43.858;18.424;2024-03-06T12:36:28;94968.41;;;19.29;32.60
84511;BME280;74730;43.858;18.424;2024-03-06T12:38:56;94973.28;;;19.16;33.01
84511;BME280;74730;43.858;18.424;2024-03-06T12:41:22;94972.00;;;19.18;32.58
84511;BME280;74730;43.858;18.424;2024-03-06T12:43:48;94977.44;;;19.07;33.90
84511;BME280;74730;43.858;18.424;2024-03-06T12:46:13;94976.94;;;19.10;34.46
84511;BME280;74730;43.858;18.424;2024-03-06T12:48:39;94977.44;;;19.07;35.03
84511;BME280;74730;43.858;18.424;2024-03-06T12:51:04;94975.31;;;18.98;34.55
84511;BME280;74730;43.858;18.424;2024-03-06T12:53:30;94972.97;;;18.97;34.22
84511;BME280;74730;43.858;18.424;2024-03-06T12:55:56;94970.28;;;18.87;34.85
84511;BME280;74730;43.858;18.424;2024-03-06T12:58:21;94965.53;;;18.79;35.27
84511;BME280;74730;43.858;18.424;2024-03-06T13:00:47;94965.72;;;18.67;34.69
84511;BME280;74730;43.858;18.424;2024-03-06T13:03:13;94961.56;;;18.71;34.35